Time;durP1;ratioP1;P1;durP2;ratioP2;P2;SDS_P1;SDS_P2;PMS_P1;PMS_P2;Temp;Humidity;BMP_temperature;BMP_pressure;BME280_temperature;BME280_humidity;BME280_pressure;Samples;Min_cycle;Max_cycle;Signal;HPM_P1;HPM_P2
2023/05/14 00:00:59;;;;;;;17.73;7.80;;;;;;;15.28;59.87;101307.62;4949057;58;1141108;-78
2023/05/14 00:06:08;;;;;;;10.10;6.93;;;;;;;15.34;59.81;101304.44;4955314;57;1140800;-77
2023/05/14 00:11:14;;;;;;;16.83;6.87;;;;;;;15.36;59.66;101301.16;5094453;56;1140885;-79
2023/05/14 00:16:19;;;;;;;14.13;7.63;;;;;;;15.27;59.46;101295.30;5011271;57;1140829;-78
2023/05/14 00:21:25;;;;;;;11.78;7.08;;;;;;;15.22;59.83;101298.83;5010473;57;1141076;-77
2023/05/14 00:26:31;;;;;;;17.30;7.47;;;;;;;15.18;59.78;101287.22;4927655;58;1140988;-78
2023/05/14 00:31:37;;;;;;;9.85;6.67;;;;;;;15.14;60.11;101289.29;4937020;57;1140984;-78
2023/05/14 00:36:42;;;;;;;18.47;9.03;;;;;;;14.82;59.92;101281.84;5064559;56;1138781;-77
2023/05/14 00:41:48;;;;;;;13.07;7.87;;;;;;;14.65;60.57;101281.91;5102955;56;1140887;-79
2023/05/14 00:46:54;;;;;;;13.50;7.53;;;;;;;14.67;61.74;101277.28;5065963;56;1140871;-77
2023/05/14 00:52:00;;;;;;;13.83;7.40;;;;;;;14.66;61.46;101281.78;5037875;56;1140812;-77
2023/05/14 00:57:07;;;;;;;11.27;7.60;;;;;;;14.66;61.36;101283.60;5017772;56;1140932;-77
2023/05/14 01:02:13;;;;;;;11.22;6.08;;;;;;;14.56;61.96;101281.31;5041709;56;1140844;-79
2023/05/14 01:07:35;;;;;;;20.70;7.90;;;;;;;14.40;61.81;101275.92;5121928;56;1140942;-77
2023/05/14 01:13:03;;;;;;;16.87;7.10;;;;;;;14.38;62.62;101278.30;5101815;56;1141080;-77
2023/05/14 01:18:13;;;;;;;21.93;8.07;;;;;;;14.34;62.80;101273.74;5069037;56;1140837;-79
2023/05/14 01:23:19;;;;;;;15.73;7.70;;;;;;;14.18;63.17;101272.45;5118375;56;1140745;-77
2023/05/14 01:28:31;;;;;;;10.63;6.80;;;;;;;14.03;63.31;101272.71;5154709;55;1140890;-78
2023/05/14 01:33:37;;;;;;;;;;;;;;;13.93;64.01;101257.59;5088053;56;1140930;-79
2023/05/14 01:38:45;;;;;;;24.60;14.87;;;;;;;13.67;64.55;101258.34;5158470;55;976162;-78
2023/05/14 01:43:52;;;;;;;33.43;18.70;;;;;;;13.67;65.36;101255.67;5160680;55;1140896;-78
2023/05/14 01:48:58;;;;;;;27.67;14.53;;;;;;;13.49;65.60;101258.44;5033892;56;1143087;-79
2023/05/14 01:54:03;;;;;;;27.87;13.30;;;;;;;13.43;66.06;101256.28;5014859;56;1143093;-78
2023/05/14 01:59:09;;;;;;;38.00;16.37;;;;;;;13.45;66.33;101243.21;5084397;55;1142941;-77
2023/05/14 02:04:15;;;;;;;31.00;14.33;;;;;;;13.48;66.72;101240.80;5137843;55;1142814;-79
2023/05/14 02:09:20;;;;;;;35.97;12.37;;;;;;;13.51;66.85;101244.56;5100987;56;1142971;-77
2023/05/14 02:14:26;;;;;;;20.63;9.40;;;;;;;13.49;66.47;101247.33;5158367;56;1142945;-78
2023/05/14 02:19:31;;;;;;;14.07;7.20;;;;;;;13.42;66.44;101242.63;5097299;56;1140983;-79
2023/05/14 02:24:37;;;;;;;8.95;6.60;;;;;;;13.27;65.89;101239.35;5071876;55;1141099;-77
2023/05/14 02:29:43;;;;;;;17.40;8.43;;;;;;;12.95;67.26;101229.84;5018207;56;1138874;-78
2023/05/14 02:34:48;;;;;;;17.10;10.80;;;;;;;12.95;67.26;101229.84;5034613;56;1140964;-79
2023/05/14 02:39:54;;;;;;;18.93;10.43;;;;;;;12.84;67.50;101229.30;5012669;57;1142835;-78
2023/05/14 02:45:00;;;;;;;20.07;11.00;;;;;;;12.73;68.02;101219.14;5018117;56;1142896;-77
2023/05/14 02:50:07;;;;;;;26.37;12.97;;;;;;;12.72;68.38;101224.08;5118836;55;1142891;-78
2023/05/14 02:55:12;;;;;;;18.67;8.30;;;;;;;12.72;68.94;101213.46;5072770;55;1143093;-78
2023/05/14 03:00:18;;;;;;;11.80;7.20;;;;;;;12.54;68.88;101220.99;5037797;56;1140927;-78
2023/05/14 03:05:24;;;;;;;16.17;7.83;;;;;;;12.45;69.45;101221.69;5057256;56;1140775;-79
2023/05/14 03:10:31;;;;;;;13.25;9.60;;;;;;;12.30;69.58;101219.69;5020460;56;1140904;-78
2023/05/14 03:15:37;;;;;;;19.33;11.37;;;;;;;12.16;69.76;101224.69;5018451;56;1140968;-78
2023/05/14 03:20:43;;;;;;;21.73;12.90;;;;;;;11.79;69.90;101224.30;5068820;56;1143034;-76
2023/05/14 03:25:48;;;;;;;26.47;11.73;;;;;;;11.69;71.02;101224.57;5056980;56;1143018;-78
2023/05/14 03:30:54;;;;;;;16.53;9.40;;;;;;;11.86;72.32;101228.23;5037733;56;1142913;-79
2023/05/14 03:36:00;;;;;;;15.50;8.33;;;;;;;11.87;72.50;101225.95;5062555;56;1140895;-77
2023/05/14 03:41:05;;;;;;;14.03;9.00;;;;;;;12.01;72.58;101221.82;5091014;56;1140734;-76
2023/05/14 03:46:11;;;;;;;17.87;10.73;;;;;;;12.09;72.22;101215.47;5070926;56;1140969;-78
2023/05/14 03:51:17;;;;;;;17.03;8.90;;;;;;;12.06;71.89;101218.84;4981653;57;1142958;-76
2023/05/14 03:56:22;;;;;;;14.10;8.07;;;;;;;12.02;73.18;101230.63;5055112;57;1140944;-79
2023/05/14 04:01:28;;;;;;;10.13;7.57;;;;;;;12.00;73.50;101232.05;5035600;57;1150393;-79
2023/05/14 04:06:35;;;;;;;18.37;8.77;;;;;;;11.93;74.01;101226.34;5035406;56;1140929;-78
2023/05/14 04:11:41;;;;;;;14.30;8.00;;;;;;;12.00;75.52;101233.38;5035238;57;1141153;-76
2023/05/14 04:16:47;;;;;;;14.33;8.30;;;;;;;12.07;75.64;101224.52;5029620;57;1140958;-78
2023/05/14 04:21:52;;;;;;;14.73;8.10;;;;;;;12.18;75.69;101224.58;4970600;56;1140867;-77
2023/05/14 04:26:58;;;;;;;11.70;8.73;;;;;;;12.26;75.44;101216.41;5073621;55;1140906;-80
2023/05/14 04:32:03;;;;;;;23.83;9.40;;;;;;;12.41;75.87;101210.93;5094979;56;1141014;-79
2023/05/14 04:37:09;;;;;;;16.27;8.70;;;;;;;12.48;76.21;101215.69;5067072;56;1140872;-79
2023/05/14 04:42:15;;;;;;;19.13;9.63;;;;;;;12.56;76.50;101206.66;5031035;56;1140900;-80
2023/05/14 04:47:21;;;;;;;16.17;8.90;;;;;;;12.59;76.98;101209.56;5118080;55;1141006;-79
2023/05/14 04:52:26;;;;;;;15.47;9.03;;;;;;;12.70;77.02;101213.58;4999873;56;1140943;-80
2023/05/14 04:57:32;;;;;;;15.43;9.40;;;;;;;12.89;77.15;101193.13;5053302;56;1140947;-78
2023/05/14 05:02:38;;;;;;;12.87;8.37;;;;;;;12.89;77.15;101193.13;5093554;56;1141067;-77
2023/05/14 05:07:43;;;;;;;16.37;8.97;;;;;;;13.22;77.72;101194.55;5057222;55;1140989;-78
2023/05/14 05:12:49;;;;;;;13.13;9.13;;;;;;;13.22;77.72;101194.55;5045111;56;1141056;-77
2023/05/14 05:17:55;;;;;;;13.70;10.17;;;;;;;13.39;77.54;101202.52;5083351;55;1141104;-77
2023/05/14 05:23:00;;;;;;;12.73;9.23;;;;;;;13.60;77.57;101203.47;5101845;56;1142952;-78
2023/05/14 05:28:06;;;;;;;20.37;9.27;;;;;;;13.82;76.41;101205.76;5092108;55;1140911;-78
2023/05/14 05:33:12;;;;;;;18.10;9.50;;;;;;;14.05;74.17;101200.26;5154401;55;1141081;-78
2023/05/14 05:38:18;;;;;;;19.37;9.67;;;;;;;14.29;72.97;101199.23;5140861;56;1141073;-76
2023/05/14 05:43:24;;;;;;;15.70;9.83;;;;;;;14.55;72.38;101193.95;5155523;55;1140907;-79
2023/05/14 05:48:29;;;;;;;19.00;10.17;;;;;;;14.71;72.09;101189.52;5103282;56;1140893;-77
2023/05/14 05:53:35;;;;;;;16.05;9.83;;;;;;;14.96;71.35;101170.51;5093771;56;1143101;-78
2023/05/14 05:58:41;;;;;;;12.05;9.40;;;;;;;15.02;68.78;101180.62;5128557;55;1140805;-79
2023/05/14 06:03:46;;;;;;;20.60;9.40;;;;;;;15.08;69.31;101196.09;5105280;55;1140999;-76
2023/05/14 06:08:52;;;;;;;19.10;9.50;;;;;;;15.07;68.65;101181.56;5177175;55;1140845;-78
2023/05/14 06:13:58;;;;;;;12.70;8.57;;;;;;;15.08;69.21;101180.11;5119856;55;1141041;-77
2023/05/14 06:19:03;;;;;;;12.40;9.17;;;;;;;15.12;69.30;101178.03;5032584;56;1140827;-77
2023/05/14 06:24:09;;;;;;;21.93;9.30;;;;;;;15.20;69.81;101168.87;5037383;57;1140756;-79
2023/05/14 06:29:15;;;;;;;18.73;10.37;;;;;;;15.36;70.10;101166.56;5021544;56;1140836;-77
2023/05/14 06:34:20;;;;;;;33.13;8.77;;;;;;;15.64;69.48;101166.34;5017211;56;1142990;-77
2023/05/14 06:39:26;;;;;;;14.23;8.97;;;;;;;15.98;69.36;101165.51;5037731;55;1140944;-79
2023/05/14 06:44:32;;;;;;;17.03;8.27;;;;;;;16.38;68.90;101162.72;5017935;55;1141026;-78
2023/05/14 06:49:39;;;;;;;17.00;7.47;;;;;;;16.71;68.05;101157.95;5098409;55;1140993;-76
2023/05/14 06:54:44;;;;;;;17.60;6.35;;;;;;;17.07;65.12;101154.50;5000384;56;1140890;-78
2023/05/14 06:59:50;;;;;;;11.17;6.13;;;;;;;17.35;64.57;101155.37;4956304;57;1140948;-76
2023/05/14 07:04:55;;;;;;;11.37;5.30;;;;;;;17.67;62.75;101150.12;4985967;56;1140869;-76
2023/05/14 07:10:01;;;;;;;17.27;5.70;;;;;;;17.89;58.67;101145.67;5045140;56;1140910;-78
2023/05/14 07:15:08;;;;;;;11.03;5.90;;;;;;;18.13;59.78;101141.92;5088601;56;1140773;-78
2023/05/14 07:20:15;;;;;;;13.60;5.97;;;;;;;18.41;58.04;101134.64;5035580;57;1141167;-77
2023/05/14 07:25:21;;;;;;;6.03;5.13;;;;;;;18.67;56.55;101135.20;4935642;57;1140983;-77
2023/05/14 07:30:26;;;;;;;13.70;6.00;;;;;;;18.91;55.15;101117.96;4988835;57;1138784;-78
2023/05/14 07:35:32;;;;;;;10.17;5.67;;;;;;;19.11;54.68;101110.02;5036083;55;1140933;-78
2023/05/14 07:40:38;;;;;;;10.00;7.13;;;;;;;19.42;54.73;101106.30;5185458;55;1140785;-75
2023/05/14 07:45:43;;;;;;;8.33;4.60;;;;;;;19.65;48.96;101107.92;5117364;55;1141174;-77
2023/05/14 07:50:50;;;;;;;7.97;4.13;;;;;;;19.70;47.95;101100.73;5068415;55;1138931;-78
2023/05/14 07:55:56;;;;;;;11.60;4.00;;;;;;;19.84;50.17;101096.91;5099289;55;1138840;-75
2023/05/14 08:01:05;;;;;;;10.07;4.87;;;;;;;20.00;44.29;101092.06;5099125;55;1141329;-75
2023/05/14 08:06:09;;;;;;;10.63;4.27;;;;;;;20.13;47.45;101096.94;5122399;55;1140815;-75
2023/05/14 08:11:14;;;;;;;8.40;4.37;;;;;;;20.36;48.80;101097.47;5098463;55;1141007;-76
2023/05/14 08:16:20;;;;;;;11.22;4.47;;;;;;;20.56;47.64;101074.28;5075820;55;1138834;-79
2023/05/14 08:21:26;;;;;;;4.20;3.00;;;;;;;20.57;47.29;101075.46;5067395;55;1141147;-77
2023/05/14 08:26:32;;;;;;;9.03;3.33;;;;;;;20.74;42.17;101074.09;5062870;55;1139050;-82
2023/05/14 08:31:38;;;;;;;6.03;3.77;;;;;;;20.79;42.03;101067.17;5065631;55;1138764;-74
2023/05/14 08:36:44;;;;;;;8.08;3.15;;;;;;;20.90;42.29;101062.79;5061462;56;1138680;-77
2023/05/14 08:41:49;;;;;;;8.13;3.85;;;;;;;21.06;42.19;101051.98;5087417;55;1138728;-77
2023/05/14 08:46:56;;;;;;;9.43;5.05;;;;;;;21.18;38.83;101060.50;5058040;56;1138702;-76
2023/05/14 08:52:02;;;;;;;7.58;3.65;;;;;;;21.17;40.00;101059.32;5065209;56;1138812;-79
2023/05/14 08:57:10;;;;;;;10.23;4.20;;;;;;;21.36;40.72;101053.55;5092101;55;1139011;-76
2023/05/14 09:02:16;;;;;;;8.50;4.00;;;;;;;21.53;40.07;101049.77;5064340;56;1141018;-75
2023/05/14 09:07:22;;;;;;;11.65;3.10;;;;;;;21.66;39.93;101047.33;5078965;55;1138827;-77
2023/05/14 09:12:28;;;;;;;11.18;4.62;;;;;;;21.83;39.53;101047.22;5093832;55;1140895;-78
2023/05/14 09:17:35;;;;;;;11.55;4.20;;;;;;;22.04;41.28;101048.75;5050807;56;1140766;-77
2023/05/14 09:22:40;;;;;;;11.08;4.05;;;;;;;22.10;37.23;101042.66;5034455;56;1141072;-75
2023/05/14 09:27:53;;;;;;;11.48;3.50;;;;;;;22.11;39.84;101032.20;4966813;56;1141033;-77
2023/05/14 09:32:58;;;;;;;3.77;3.17;;;;;;;22.39;37.09;101029.75;5030721;57;1140845;-73
2023/05/14 09:38:03;;;;;;;6.20;3.15;;;;;;;22.43;38.03;101017.59;5011091;57;1138736;-75
2023/05/14 09:43:10;;;;;;;14.78;3.70;;;;;;;22.44;34.12;101021.45;5096413;56;1138755;-76
2023/05/14 09:48:16;;;;;;;14.10;3.55;;;;;;;22.45;36.91;101006.12;5116839;56;1140744;-76
2023/05/14 09:53:21;;;;;;;8.28;3.70;;;;;;;22.56;34.35;101010.21;4990318;56;1140802;-78
2023/05/14 09:58:28;;;;;;;7.70;3.10;;;;;;;22.56;36.61;101000.27;5071338;57;1139102;-76
2023/05/14 10:03:34;;;;;;;20.90;4.10;;;;;;;22.78;35.93;100991.26;5098993;55;1138816;-89
2023/05/14 10:08:46;;;;;;;8.63;4.33;;;;;;;22.59;34.64;100988.27;5094770;56;1141059;-77
2023/05/14 10:14:26;;;;;;;11.43;3.47;;;;;;;22.34;35.93;100988.52;5100111;55;1138760;-75
2023/05/14 10:19:34;;;;;;;5.35;3.55;;;;;;;22.23;36.68;100973.31;5119687;55;1141054;-76
2023/05/14 10:24:40;;;;;;;9.03;3.37;;;;;;;22.02;35.69;100966.77;5057573;55;1138843;-77
2023/05/14 10:29:55;;;;;;;11.08;3.17;;;;;;;21.79;35.74;100976.72;5088327;56;1138762;-74
2023/05/14 10:35:02;;;;;;;3.87;2.50;;;;;;;21.62;36.11;100966.58;5110801;56;1141014;-77
2023/05/14 10:40:09;;;;;;;3.55;2.33;;;;;;;21.52;36.33;100957.92;5093055;56;1138715;-77
2023/05/14 10:45:16;;;;;;;6.90;3.08;;;;;;;21.35;35.91;100948.28;5100737;56;1138696;-75
2023/05/14 10:50:22;;;;;;;9.43;2.70;;;;;;;21.27;35.63;100953.19;5109752;56;1138752;-76
2023/05/14 10:55:28;;;;;;;5.10;2.60;;;;;;;21.17;34.79;100945.84;5071643;56;1138578;-76
2023/05/14 11:00:36;;;;;;;6.47;3.35;;;;;;;21.04;35.42;100941.04;5041847;56;1139126;-75
2023/05/14 11:05:42;;;;;;;6.20;3.45;;;;;;;21.08;36.32;100928.89;5145147;55;1138864;-77
2023/05/14 11:10:49;;;;;;;3.55;2.85;;;;;;;21.08;35.67;100920.82;5121766;56;1138934;-76
2023/05/14 11:15:54;;;;;;;9.90;3.50;;;;;;;21.04;36.05;100906.58;5101542;56;1138648;-77
2023/05/14 11:21:01;;;;;;;9.03;2.40;;;;;;;21.08;37.15;100903.34;5086584;55;1139053;-75
2023/05/14 11:26:07;;;;;;;4.90;2.70;;;;;;;21.28;39.29;100892.98;5121641;56;1138872;-77
2023/05/14 11:31:13;;;;;;;6.20;2.40;;;;;;;21.56;36.77;100874.42;5123166;55;1138750;-77
2023/05/14 11:36:18;;;;;;;4.53;2.90;;;;;;;21.55;35.79;100875.44;5101420;56;1138795;-76
2023/05/14 11:41:26;;;;;;;12.37;3.95;;;;;;;21.47;34.65;100879.56;5121396;55;1138810;-74
2023/05/14 11:46:31;;;;;;;6.80;3.27;;;;;;;21.36;35.01;100875.96;5099378;55;1140924;-76
2023/05/14 11:51:37;;;;;;;6.75;3.17;;;;;;;21.39;35.22;100870.19;5135953;55;1138928;-75
2023/05/14 11:56:42;;;;;;;5.03;3.08;;;;;;;21.25;35.22;100865.09;5102738;55;1138996;-75
2023/05/14 12:01:50;;;;;;;13.68;4.37;;;;;;;21.25;35.22;100865.09;5145655;55;1138718;-76
2023/05/14 12:06:59;;;;;;;3.80;2.65;;;;;;;21.28;36.86;100862.55;5078060;55;1141072;-73
2023/05/14 12:12:10;;;;;;;10.23;3.47;;;;;;;21.40;36.37;100855.72;5050695;56;1138681;-75
2023/05/14 12:17:19;;;;;;;11.70;3.50;;;;;;;21.47;35.80;100844.58;5111393;56;1140997;-75
2023/05/14 12:22:25;;;;;;;6.87;3.35;;;;;;;21.52;36.20;100827.89;5117734;55;1140926;-75
2023/05/14 12:27:31;;;;;;;7.72;3.15;;;;;;;21.60;35.82;100832.67;5057952;56;1138786;-77
2023/05/14 12:32:44;;;;;;;9.63;2.77;;;;;;;21.59;35.70;100830.16;5126366;55;1138843;-76
2023/05/14 12:37:46;;;;;;;18.23;3.58;;;;;;;21.48;35.85;100822.54;5098081;56;1138970;-76
2023/05/14 12:42:51;;;;;;;12.63;3.10;;;;;;;21.35;36.07;100817.78;5100440;55;1140918;-75
2023/05/14 12:47:57;;;;;;;3.92;2.90;;;;;;;21.34;36.45;100803.48;5137011;55;1140837;-75
2023/05/14 12:53:03;;;;;;;8.18;3.15;;;;;;;21.35;36.39;100792.22;5074082;56;1138904;-75
2023/05/14 12:58:08;;;;;;;6.85;3.00;;;;;;;21.40;36.21;100781.72;5080238;56;1138759;-75
2023/05/14 13:03:14;;;;;;;28.52;3.47;;;;;;;21.46;35.25;100782.86;5166063;56;1138779;-77
2023/05/14 13:08:23;;;;;;;10.43;2.90;;;;;;;21.49;35.28;100767.70;5105270;56;1141126;-77
2023/05/14 13:13:29;;;;;;;12.78;2.62;;;;;;;21.55;35.78;100769.63;5101392;56;1140881;-78
2023/05/14 13:18:34;;;;;;;8.98;2.70;;;;;;;21.67;35.57;100766.84;5089997;55;1141008;-77
2023/05/14 13:23:40;;;;;;;5.36;2.60;;;;;;;21.73;35.92;100767.42;5159857;55;1138831;-77
2023/05/14 13:28:46;;;;;;;4.10;3.05;;;;;;;21.92;36.04;100756.61;5187858;55;1138725;-77
2023/05/14 13:33:51;;;;;;;5.00;2.53;;;;;;;21.77;35.64;100752.58;5208501;55;1138740;-76
2023/05/14 13:38:57;;;;;;;3.17;2.50;;;;;;;21.77;35.64;100752.58;5100019;55;1138855;-80
2023/05/14 13:44:03;;;;;;;5.90;2.58;;;;;;;21.89;36.99;100751.59;5098225;55;1138634;-78
2023/05/14 13:49:09;;;;;;;7.53;2.20;;;;;;;21.99;36.63;100753.51;5110013;55;1138903;-77
2023/05/14 13:54:14;;;;;;;5.28;2.27;;;;;;;21.92;37.51;100758.80;5096407;55;1138771;-78
2023/05/14 13:59:20;;;;;;;7.15;2.95;;;;;;;21.98;37.71;100750.48;5087244;56;1138824;-75
2023/05/14 14:04:27;;;;;;;5.57;2.80;;;;;;;21.81;37.50;100751.19;5103669;56;1138693;-77
2023/05/14 14:09:34;;;;;;;3.70;2.87;;;;;;;21.63;38.10;100754.77;5058916;56;1138864;-75
2023/05/14 14:14:40;;;;;;;8.80;3.33;;;;;;;21.62;39.22;100736.94;5070387;56;1138741;-75
2023/05/14 14:19:45;;;;;;;5.45;2.95;;;;;;;21.65;39.18;100730.67;5116331;56;1138743;-75
2023/05/14 14:24:51;;;;;;;5.10;3.00;;;;;;;21.78;38.12;100732.71;5037046;56;1138764;-77
2023/05/14 14:29:57;;;;;;;8.03;2.80;;;;;;;21.78;38.12;100732.71;5017230;57;1138721;-77
2023/05/14 14:35:03;;;;;;;9.23;2.47;;;;;;;21.87;38.33;100722.16;5017077;57;1138837;-75
2023/05/14 14:40:10;;;;;;;5.90;2.42;;;;;;;21.97;39.22;100723.23;5070898;56;1138913;-75
2023/05/14 14:45:15;;;;;;;5.75;2.85;;;;;;;21.98;39.13;100719.00;5027057;56;1138781;-77
2023/05/14 14:50:21;;;;;;;5.15;3.05;;;;;;;21.92;39.08;100726.98;5020912;56;1138871;-75
2023/05/14 14:55:26;;;;;;;10.65;3.00;;;;;;;21.75;38.93;100718.27;5037486;55;1138933;-75
2023/05/14 15:00:32;;;;;;;8.33;3.30;;;;;;;21.65;39.92;100713.18;5029412;56;1140923;-75
2023/05/14 15:05:38;;;;;;;5.75;2.70;;;;;;;21.70;40.24;100710.74;5081903;55;1138756;-74
2023/05/14 15:10:45;;;;;;;4.38;2.40;;;;;;;21.82;40.13;100694.97;5102328;55;1138909;-78
2023/05/14 15:15:51;;;;;;;9.43;5.60;;;;;;;22.04;40.52;100689.98;5115563;56;1139124;-75
2023/05/14 15:20:57;;;;;;;6.65;2.42;;;;;;;22.17;40.58;100675.83;5000839;56;1138829;-76
2023/05/14 15:26:02;;;;;;;3.92;2.42;;;;;;;22.25;39.99;100670.33;4955549;56;1138819;-76
2023/05/14 15:31:08;;;;;;;4.67;2.47;;;;;;;22.30;39.63;100677.85;4955496;56;1138872;-73
2023/05/14 15:36:14;;;;;;;7.80;2.77;;;;;;;22.12;39.57;100666.16;4935004;57;1138829;-73
2023/05/14 15:41:19;;;;;;;2.87;2.20;;;;;;;21.98;40.60;100668.34;4941865;56;1138870;-74
2023/05/14 15:46:25;;;;;;;3.77;3.05;;;;;;;21.83;40.61;100661.64;5037143;56;1138793;-76
2023/05/14 15:51:31;;;;;;;16.12;3.08;;;;;;;21.70;41.16;100666.83;5016977;57;1138835;-76
2023/05/14 15:56:38;;;;;;;3.58;2.46;;;;;;;21.66;41.66;100656.14;5032071;56;1200264;-75
2023/05/14 16:01:43;;;;;;;2.30;2.20;;;;;;;21.73;42.32;100654.34;5016401;56;1138887;-76
2023/05/14 16:06:49;;;;;;;4.78;2.58;;;;;;;21.79;41.46;100654.95;5098475;56;1138849;-75
2023/05/14 16:11:55;;;;;;;5.03;3.40;;;;;;;21.85;40.50;100639.88;5002394;56;1178684;-74
2023/05/14 16:17:03;;;;;;;2.22;2.00;;;;;;;21.81;41.44;100642.14;5064015;55;1138859;-76
2023/05/14 16:22:09;;;;;;;5.45;2.15;;;;;;;21.82;41.38;100635.73;5074950;55;1138692;-73
2023/05/14 16:27:17;;;;;;;11.60;3.50;;;;;;;21.71;41.09;100626.27;5014992;57;1138807;-74
2023/05/14 16:32:23;;;;;;;3.47;2.40;;;;;;;21.65;41.33;100630.24;5080428;56;1140766;-74
2023/05/14 16:37:29;;;;;;;1.80;1.70;;;;;;;21.66;41.21;100622.48;5035830;57;1138971;-74
2023/05/14 16:42:34;;;;;;;3.34;1.66;;;;;;;21.57;41.16;100614.18;5145701;55;1138901;-74
2023/05/14 16:47:40;;;;;;;2.67;2.05;;;;;;;21.47;41.78;100621.21;5074547;56;1138912;-76
2023/05/14 16:52:46;;;;;;;3.40;2.60;;;;;;;21.34;41.79;100617.00;5084947;55;1138735;-75
2023/05/14 16:57:51;;;;;;;4.43;2.47;;;;;;;21.25;41.87;100604.14;5044228;56;1138784;-77
2023/05/14 17:02:57;;;;;;;4.83;1.93;;;;;;;21.21;40.95;100600.69;5009573;57;1230704;-75
2023/05/14 17:08:03;;;;;;;10.40;4.42;;;;;;;21.14;41.11;100593.83;4982824;56;1245232;-76
2023/05/14 17:13:09;;;;;;;10.38;3.90;;;;;;;21.11;41.30;100601.42;5037772;56;1141504;-76
2023/05/14 17:18:31;;;;;;;7.92;2.42;;;;;;;21.08;41.06;100599.96;5017414;55;1220234;-76
2023/05/14 17:23:37;;;;;;;53.65;38.92;;;;;;;21.01;41.06;100600.36;4938691;56;1239836;-75
2023/05/14 17:28:42;;;;;;;25.45;9.10;;;;;;;20.97;40.92;100599.05;4933091;56;1245294;-73
2023/05/14 17:33:48;;;;;;;12.47;6.60;;;;;;;20.95;41.72;100598.40;4991992;56;1140794;-76
2023/05/14 17:38:54;;;;;;;10.40;4.13;;;;;;;20.87;41.71;100598.50;5027153;56;1235306;-75
2023/05/14 17:43:59;;;;;;;9.60;3.70;;;;;;;20.78;42.14;100602.30;5016270;56;1252458;-76
2023/05/14 17:49:05;;;;;;;8.60;2.90;;;;;;;20.70;42.46;100603.20;5032904;56;1240737;-75
2023/05/14 17:54:10;;;;;;;9.35;5.95;;;;;;;20.60;42.91;100611.53;5022044;55;1249799;-75
2023/05/14 17:59:16;;;;;;;6.37;4.08;;;;;;;20.54;43.59;100604.69;5018460;56;1139095;-76
2023/05/14 18:04:22;;;;;;;6.95;1.70;;;;;;;20.49;44.08;100604.38;5044658;56;1138750;-72
2023/05/14 18:09:27;;;;;;;8.70;3.05;;;;;;;20.41;44.16;100605.81;5018045;57;1138845;-78
2023/05/14 18:14:33;;;;;;;7.67;4.65;;;;;;;20.32;44.35;100611.20;5018026;57;1138660;-76
2023/05/14 18:19:39;;;;;;;8.32;4.02;;;;;;;20.26;44.81;100610.59;5085611;55;1138827;-76
2023/05/14 18:24:46;;;;;;;9.36;4.22;;;;;;;20.20;45.13;100616.67;4945712;57;1138832;-74
2023/05/14 18:29:52;;;;;;;12.45;4.92;;;;;;;20.10;45.37;100613.91;4945270;56;1138814;-76
2023/05/14 18:34:57;;;;;;;6.60;3.15;;;;;;;19.98;45.94;100617.52;5018068;56;1141268;-74
2023/05/14 18:40:05;;;;;;;25.92;7.78;;;;;;;19.89;46.15;100620.73;5007676;56;1138951;-75
2023/05/14 18:45:11;;;;;;;12.65;5.30;;;;;;;19.82;46.60;100630.52;4998271;56;1216218;-75
2023/05/14 18:50:17;;;;;;;4.17;2.95;;;;;;;19.71;46.96;100638.94;4998718;56;1140839;-77
2023/05/14 18:55:23;;;;;;;12.80;4.37;;;;;;;19.64;47.19;100631.28;4980739;55;1138878;-76
2023/05/14 19:00:28;;;;;;;27.95;12.03;;;;;;;19.54;47.52;100636.87;5022071;55;1252112;-76
2023/05/14 19:05:34;;;;;;;54.35;20.80;;;;;;;19.47;47.91;100633.16;5121987;55;1178227;-77
2023/05/14 19:10:40;;;;;;;11.78;6.58;;;;;;;19.38;48.10;100629.35;5097585;56;1213558;-77
2023/05/14 19:15:45;;;;;;;5.75;3.47;;;;;;;19.35;48.43;100626.50;5123094;55;1140888;-76
2023/05/14 19:20:51;;;;;;;8.13;2.90;;;;;;;19.36;48.68;100630.86;5064725;55;1138752;-76
2023/05/14 19:25:57;;;;;;;4.28;2.85;;;;;;;19.31;48.76;100623.83;5014674;57;1138795;-76
2023/05/14 19:31:02;;;;;;;10.32;3.40;;;;;;;19.12;49.87;100609.47;4898371;58;1138832;-76
2023/05/14 19:36:08;;;;;;;8.93;2.75;;;;;;;19.12;49.87;100609.47;4958178;58;1140986;-77
2023/05/14 19:41:14;;;;;;;8.90;2.05;;;;;;;19.02;50.28;100625.76;4913944;58;1138847;-77
2023/05/14 19:46:20;;;;;;;3.85;2.52;;;;;;;18.90;51.15;100620.42;4912067;58;1138907;-78
2023/05/14 19:51:25;;;;;;;20.82;2.72;;;;;;;18.79;51.63;100624.27;4963543;55;1138766;-78
2023/05/14 19:56:31;;;;;;;26.80;3.58;;;;;;;18.80;52.38;100621.09;4898187;57;1140794;-77
2023/05/14 20:01:37;;;;;;;14.73;2.77;;;;;;;18.77;52.89;100607.56;4927506;57;1140986;-77
2023/05/14 20:06:44;;;;;;;11.48;3.00;;;;;;;18.70;53.11;100600.35;4955887;57;1140935;-78
2023/05/14 20:11:49;;;;;;;7.75;2.60;;;;;;;18.67;53.80;100596.16;5082357;56;1140890;-77
2023/05/14 20:16:56;;;;;;;16.12;3.55;;;;;;;18.64;54.46;100593.81;5155610;55;1138892;-77
2023/05/14 20:22:02;;;;;;;10.82;4.40;;;;;;;18.48;54.55;100585.79;5028388;55;1140791;-77
2023/05/14 20:27:08;;;;;;;9.83;5.80;;;;;;;18.45;55.56;100585.63;5092837;55;1140975;-77
2023/05/14 20:32:14;;;;;;;10.47;4.83;;;;;;;18.48;56.72;100583.95;5004671;56;1138989;-77
2023/05/14 20:37:20;;;;;;;7.83;4.73;;;;;;;18.49;56.44;100573.55;5066235;56;1141004;-77
2023/05/14 20:42:26;;;;;;;22.90;5.07;;;;;;;18.48;56.67;100561.69;5135535;55;1138770;-78
2023/05/14 20:47:32;;;;;;;30.25;6.85;;;;;;;18.47;56.63;100563.53;5176684;55;1140798;-77
2023/05/14 20:52:38;;;;;;;22.65;5.85;;;;;;;18.45;57.22;100557.50;5156672;55;1140751;-77
2023/05/14 20:57:44;;;;;;;14.63;5.83;;;;;;;18.42;57.46;100555.16;5136299;55;1145526;-76
2023/05/14 21:02:49;;;;;;;16.75;5.92;;;;;;;18.24;57.27;100544.61;5133313;55;1141078;-76
2023/05/14 21:07:55;;;;;;;13.10;7.17;;;;;;;18.16;57.75;100539.27;5119986;56;1140950;-77
2023/05/14 21:13:00;;;;;;;18.42;8.35;;;;;;;18.00;58.26;100529.06;4979909;57;1140915;-78
2023/05/14 21:18:06;;;;;;;27.57;12.90;;;;;;;17.70;58.67;100524.69;5053316;56;1140999;-76
2023/05/14 21:23:12;;;;;;;11.50;5.83;;;;;;;17.68;60.25;100521.84;5129413;55;1143111;-78
2023/05/14 21:28:18;;;;;;;17.30;5.03;;;;;;;17.63;60.41;100514.77;5188066;55;1140836;-77
2023/05/14 21:33:23;;;;;;;4.00;3.60;;;;;;;17.54;60.66;100512.09;5141665;55;1140819;-77
2023/05/14 21:38:30;;;;;;;9.07;4.90;;;;;;;17.51;61.03;100506.22;5121553;55;1138752;-78
2023/05/14 21:43:36;;;;;;;12.17;6.90;;;;;;;17.57;61.46;100501.53;5101587;56;1139033;-77
2023/05/14 21:48:41;;;;;;;26.77;13.97;;;;;;;17.58;62.04;100496.53;5101407;56;1140943;-78
2023/05/14 21:53:47;;;;;;;15.77;8.80;;;;;;;17.57;62.49;100496.19;5101344;56;1143151;-77
2023/05/14 21:58:54;;;;;;;13.85;6.92;;;;;;;17.36;62.19;100489.14;5140774;55;1140820;-78
2023/05/14 22:04:00;;;;;;;15.80;7.92;;;;;;;17.20;62.50;100485.92;5076748;55;1140836;-77
2023/05/14 22:09:05;;;;;;;13.57;8.43;;;;;;;17.13;63.07;100475.03;5082055;55;1140807;-77
2023/05/14 22:14:11;;;;;;;20.17;8.60;;;;;;;17.08;63.39;100469.36;5112076;55;1141054;-78
2023/05/14 22:19:17;;;;;;;12.37;5.43;;;;;;;17.03;63.56;100461.48;5071097;55;1141010;-77
2023/05/14 22:24:23;;;;;;;20.70;6.67;;;;;;;17.04;64.16;100458.65;4980525;56;1141075;-77
2023/05/14 22:29:28;;;;;;;11.90;4.63;;;;;;;17.05;64.11;100454.98;5034922;57;1140789;-77
2023/05/14 22:34:34;;;;;;;17.73;5.03;;;;;;;17.10;64.60;100450.00;5015470;56;1140849;-76
2023/05/14 22:39:40;;;;;;;12.37;3.80;;;;;;;17.11;64.37;100446.83;5015560;56;1140962;-77
2023/05/14 22:44:45;;;;;;;10.48;5.50;;;;;;;17.14;64.55;100438.45;5015689;56;1141071;-76
2023/05/14 22:49:51;;;;;;;15.13;6.53;;;;;;;17.04;64.55;100435.94;5035024;56;1141368;-77
2023/05/14 22:54:57;;;;;;;17.17;7.20;;;;;;;16.94;64.95;100425.89;5040483;56;1140853;-77
2023/05/14 23:00:08;;;;;;;10.17;6.23;;;;;;;16.97;65.50;100411.35;5038303;55;1140829;-77